Αρχική σελίδα
METAR-TAF:

METAR-TAF

Αεροδρόμια :

Ντακάρ, Σενεγάλη

γεωγραφικό πλάτος: 14-44N, γεωγραφικό μήκος: 017-30W, υψόμετρο: 27 μ

Παρών καιρός

Η αναφορά έγινε 26 λεπτά πριν, στις 12:00 UTC
Άνεμος 10 kt από Β
Θερμοκρασία 25°C
Υγρασία 69%
Πίεση 1014 hPa
Ορατότητα 10 χλμ και άνω
Δεν υπάρχουν νέφη με βάση κάτω από τα 1500 μ. και δεν υπάρχουν νέφη σωρειτομελανίτες.

METAR: GOOY 161200Z 36010KT CAVOK 25/19 Q1014

Χρόνος: 12:26 (12:26 UTC)

Πρόγνωση Καιρού

Η αναφορά έγινε 56 λεπτά πριν, στις 11:30 UTC
Η πρόγνωση ισχύει από τις 16 στις 12 UTC έως τις 17 στις 18 UTC
Άνεμος 12 kt από Β/BA
Ορατότητα 10 χλμ και άνω
Δεν υπάρχουν νέφη με βάση κάτω από τα 1500 μ. και δεν υπάρχουν νέφη σωρειτομελανίτες.

TAF: GOOY 161130Z 1612/1718 02012KT CAVOK

Μετεωρολογικές αναφορές και προγνώσεις για περισσότερα από 4000 αεροδρόμια (δελτία METAR και TAF).

Οι διαθέσιμοι σταθμοί απεικονίζονται στο χάρτη με κίτρινες και κόκκινες κουκκίδες.

Μετακινήστε το ποντίκι πάνω από τις κουκκίδες για να δείτε το όνομα του σταθμού.

Στη συνέχεια, κάντε κλικ για να δείτε τις μετεωρολογικές αναφορές και τις προγνώσεις καιρού.

Για να αλλάξετε το χάρτη: κάντε κλικ στα πράσινα κουμπιά με τον μαύρο σταυρό για να ζουμάρετε, στο πράσινο κουμπί με την παύλα για να αφαιρέσετε το ζουμ ή στα πράσινα βέλη για να αντιπαραβάλλετε χάρτες.


METAR-TAF: